Time;durP1;ratioP1;P1;durP2;ratioP2;P2;SDS_P1;SDS_P2;PMS_P1;PMS_P2;Temp;Humidity;BMP_temperature;BMP_pressure;BME280_temperature;BME280_humidity;BME280_pressure;Samples;Min_cycle;Max_cycle;Signal;HPM_P1;HPM_P2
2021/01/09 00:02:16;;;;;;;20.20;12.05;;;1.90;99.90;;;;;;5048517;28;20021;-80
2021/01/09 00:04:42;;;;;;;16.40;6.83;;;1.90;99.90;;;;;;5051007;28;20121;-80
2021/01/09 00:07:11;;;;;;;28.63;9.82;;;1.90;99.90;;;;;;5051359;28;20017;-80
2021/01/09 00:09:37;;;;;;;20.20;10.88;;;1.90;99.90;;;;;;5050028;28;20028;-80
2021/01/09 00:12:04;;;;;;;20.40;10.90;;;2.00;99.90;;;;;;5068026;28;20039;-80
2021/01/09 00:14:30;;;;;;;17.98;10.57;;;1.90;99.90;;;;;;5066931;28;20063;-80
2021/01/09 00:16:55;;;;;;;16.63;6.78;;;2.00;99.90;;;;;;5050900;28;20038;-80
2021/01/09 00:19:21;;;;;;;16.10;8.45;;;2.00;99.90;;;;;;5043230;28;20031;-80
2021/01/09 00:21:47;;;;;;;19.55;9.38;;;2.00;99.90;;;;;;5063433;28;20021;-80
2021/01/09 00:24:12;;;;;;;16.63;10.32;;;2.00;99.90;;;;;;5048506;28;20104;-80
2021/01/09 00:26:38;;;;;;;16.60;9.38;;;2.10;99.90;;;;;;5067238;28;20027;-81
2021/01/09 00:29:05;;;;;;;22.75;11.55;;;2.10;99.90;;;;;;5047880;28;20072;-80
2021/01/09 00:31:31;;;;;;;17.50;9.98;;;2.10;99.90;;;;;;5048160;28;20036;-80
2021/01/09 00:33:58;;;;;;;21.83;11.50;;;2.20;99.90;;;;;;5068307;28;20037;-81
2021/01/09 00:36:24;;;;;;;24.45;11.00;;;2.20;99.90;;;;;;5051421;28;20106;-81
2021/01/09 00:38:50;;;;;;;20.80;11.05;;;2.20;99.90;;;;;;5048216;28;20198;-80
2021/01/09 00:41:24;;;;;;;18.30;10.80;;;2.20;99.90;;;;;;5067473;28;20106;-80
2021/01/09 00:43:49;;;;;;;23.17;10.82;;;2.20;99.90;;;;;;5067691;28;20075;-81
2021/01/09 00:46:18;;;;;;;18.15;10.57;;;2.20;99.90;;;;;;5051661;28;20078;-82
2021/01/09 00:48:44;;;;;;;18.70;10.82;;;2.20;99.90;;;;;;5054094;28;20520;-82
2021/01/09 00:51:13;;;;;;;16.85;9.13;;;2.30;99.90;;;;;;5054480;28;20088;-82
2021/01/09 00:53:39;;;;;;;23.65;11.00;;;2.30;99.90;;;;;;5052771;28;20029;-82
2021/01/09 00:56:06;;;;;;;26.08;11.43;;;2.30;99.90;;;;;;5052543;28;20033;-82
2021/01/09 00:58:32;;;;;;;16.88;9.00;;;2.30;99.90;;;;;;5070084;28;20116;-81
2021/01/09 01:00:58;;;;;;;20.45;10.40;;;2.40;99.90;;;;;;5052935;28;20035;-82
2021/01/09 01:03:23;;;;;;;19.25;10.10;;;2.30;99.90;;;;;;5072476;28;20095;-82
2021/01/09 01:05:49;;;;;;;17.23;9.02;;;2.30;99.90;;;;;;5061652;28;20047;-82
2021/01/09 01:08:14;;;;;;;15.88;8.65;;;2.30;99.90;;;;;;5055250;28;20082;-83
2021/01/09 01:10:40;;;;;;;15.52;8.95;;;2.40;99.90;;;;;;5070477;28;20044;-81
2021/01/09 01:13:05;;;;;;;14.77;8.10;;;2.40;99.90;;;;;;5052719;28;20459;-80
2021/01/09 01:15:31;;;;;;;18.05;9.00;;;2.40;99.90;;;;;;5068627;28;20067;-80
2021/01/09 01:17:57;;;;;;;16.05;8.25;;;2.40;99.90;;;;;;5053576;28;20078;-80
2021/01/09 01:20:23;;;;;;;16.77;9.25;;;2.40;99.90;;;;;;5054209;28;20028;-80
2021/01/09 01:22:48;;;;;;;21.08;11.05;;;2.40;99.90;;;;;;5054221;28;20028;-80
2021/01/09 01:25:14;;;;;;;15.77;9.65;;;2.40;99.90;;;;;;5051917;28;20073;-80
2021/01/09 01:27:40;;;;;;;18.48;10.52;;;2.40;99.90;;;;;;5053005;28;20476;-81
2021/01/09 01:30:06;;;;;;;15.20;9.23;;;2.40;99.90;;;;;;5050496;28;20056;-81
2021/01/09 01:32:32;;;;;;;18.27;9.45;;;2.30;99.90;;;;;;5063295;28;20036;-82
2021/01/09 01:34:58;;;;;;;19.58;10.73;;;2.30;99.90;;;;;;5048172;28;20032;-81
2021/01/09 01:37:23;;;;;;;18.10;9.90;;;2.20;99.90;;;;;;5053706;28;20016;-81
2021/01/09 01:39:49;;;;;;;18.05;9.18;;;2.20;99.90;;;;;;5050526;28;20119;-81
2021/01/09 01:42:14;;;;;;;18.65;9.95;;;2.20;99.90;;;;;;5052206;28;20028;-81
2021/01/09 01:44:40;;;;;;;20.63;8.82;;;2.20;99.90;;;;;;5051659;28;20102;-81
2021/01/09 01:47:10;;;;;;;20.40;10.32;;;2.20;99.90;;;;;;5052215;28;20048;-82
2021/01/09 01:49:35;;;;;;;16.65;9.38;;;2.20;99.90;;;;;;5071279;28;20127;-82
2021/01/09 01:52:01;;;;;;;19.73;10.57;;;2.20;99.90;;;;;;5053624;28;20142;-80
2021/01/09 01:54:27;;;;;;;25.65;11.20;;;2.20;99.90;;;;;;5069166;28;20029;-80
2021/01/09 01:56:53;;;;;;;16.58;10.07;;;2.20;99.90;;;;;;5068729;28;20029;-82
2021/01/09 01:59:19;;;;;;;18.00;10.55;;;2.20;99.90;;;;;;5048874;28;20075;-82
2021/01/09 02:01:49;;;;;;;23.85;11.82;;;2.20;99.90;;;;;;5049729;28;20059;-82
2021/01/09 02:04:14;;;;;;;24.92;12.52;;;2.10;99.90;;;;;;5068908;28;20070;-82
2021/01/09 02:06:40;;;;;;;24.67;12.23;;;2.10;99.90;;;;;;5033997;28;20029;-82
2021/01/09 02:09:17;;;;;;;21.23;11.13;;;2.00;99.90;;;;;;5049934;28;20541;-82
2021/01/09 02:12:07;;;;;;;20.15;11.88;;;2.00;99.90;;;;;;5045210;28;20032;-82
2021/01/09 02:14:39;;;;;;;23.65;11.63;;;2.00;99.90;;;;;;5044089;28;20392;-82
2021/01/09 02:17:09;;;;;;;22.60;12.13;;;1.90;99.90;;;;;;5049411;28;20016;-82
2021/01/09 02:19:38;;;;;;;22.80;12.43;;;1.80;99.90;;;;;;5052804;28;20028;-82
2021/01/09 02:22:05;;;;;;;27.20;13.57;;;1.80;99.90;;;;;;5052996;28;20024;-82
2021/01/09 02:24:32;;;;;;;28.10;12.85;;;1.80;99.90;;;;;;5051627;28;20109;-84
2021/01/09 02:26:58;;;;;;;22.60;11.90;;;1.80;99.90;;;;;;5069974;28;20082;-82
2021/01/09 02:29:24;;;;;;;23.92;12.05;;;1.80;99.90;;;;;;5066836;28;20033;-82
2021/01/09 02:32:01;;;;;;;27.25;14.10;;;1.80;99.90;;;;;;5051214;28;20016;-81
2021/01/09 02:34:51;;;;;;;25.75;12.13;;;1.80;99.90;;;;;;5052222;28;20032;-81
2021/01/09 02:37:18;;;;;;;21.10;11.82;;;1.90;99.90;;;;;;5052635;28;20026;-83
2021/01/09 02:39:44;;;;;;;22.48;12.80;;;1.90;99.90;;;;;;5049729;28;20031;-82
2021/01/09 02:42:10;;;;;;;28.85;12.25;;;1.90;99.90;;;;;;5042418;28;20028;-81
2021/01/09 02:44:37;;;;;;;25.00;12.25;;;1.90;99.90;;;;;;5050696;28;20431;-82
2021/01/09 02:47:04;;;;;;;24.90;13.05;;;1.90;99.90;;;;;;5051649;28;20078;-82
2021/01/09 02:49:30;;;;;;;24.90;12.80;;;1.90;99.90;;;;;;5052130;28;20041;-82
2021/01/09 02:51:55;;;;;;;24.00;12.65;;;2.00;99.90;;;;;;5052590;28;20036;-82
2021/01/09 02:54:21;;;;;;;26.15;12.38;;;2.00;99.90;;;;;;5049340;28;20036;-82
2021/01/09 02:56:46;;;;;;;21.75;11.70;;;2.00;99.90;;;;;;5065081;28;20025;-81
2021/01/09 02:59:12;;;;;;;19.38;11.95;;;2.00;99.90;;;;;;5065959;28;20458;-81
2021/01/09 03:01:37;;;;;;;19.88;12.13;;;2.00;99.90;;;;;;5066104;28;20025;-82
2021/01/09 03:04:03;;;;;;;18.88;12.57;;;2.00;99.90;;;;;;5069015;28;20481;-82
2021/01/09 03:06:29;;;;;;;26.83;12.38;;;2.00;99.90;;;;;;5052348;28;20555;-82
2021/01/09 03:08:54;;;;;;;21.33;11.38;;;2.00;99.90;;;;;;5049317;28;20384;-82
2021/01/09 03:11:21;;;;;;;24.50;11.90;;;2.00;99.90;;;;;;5050424;28;20025;-81
2021/01/09 03:13:47;;;;;;;24.13;12.23;;;2.00;99.90;;;;;;5046308;28;20033;-81
2021/01/09 03:16:13;;;;;;;24.08;11.77;;;2.00;99.90;;;;;;5050147;28;20035;-82
2021/01/09 03:18:38;;;;;;;20.92;12.27;;;2.00;99.90;;;;;;5062331;28;20411;-82
2021/01/09 03:21:04;;;;;;;22.08;11.77;;;2.00;99.90;;;;;;5048888;28;20500;-82
2021/01/09 03:23:30;;;;;;;21.80;12.60;;;2.00;99.90;;;;;;5064420;28;20388;-82
2021/01/09 03:25:55;;;;;;;22.73;12.38;;;2.00;99.90;;;;;;5066528;28;20107;-83
2021/01/09 03:28:21;;;;;;;21.45;12.60;;;2.00;99.90;;;;;;5066464;28;20028;-83
2021/01/09 03:30:47;;;;;;;22.77;12.18;;;2.10;99.90;;;;;;5048693;28;20036;-82
2021/01/09 03:33:12;;;;;;;20.95;12.55;;;2.10;99.90;;;;;;5052442;28;20023;-83
2021/01/09 03:35:38;;;;;;;24.17;11.75;;;2.10;99.90;;;;;;5051456;28;20553;-81
2021/01/09 03:38:03;;;;;;;20.13;12.40;;;2.10;99.90;;;;;;5051647;28;20044;-81
2021/01/09 03:40:29;;;;;;;29.65;12.38;;;2.10;99.90;;;;;;5047431;28;20029;-81
2021/01/09 03:42:55;;;;;;;21.90;11.18;;;2.10;99.90;;;;;;5050339;28;20488;-81
2021/01/09 03:45:20;;;;;;;22.17;12.32;;;2.10;99.90;;;;;;5067547;28;20059;-83
2021/01/09 03:47:46;;;;;;;24.80;12.23;;;2.20;99.90;;;;;;5050968;28;20040;-82
2021/01/09 03:50:12;;;;;;;27.10;11.95;;;2.20;99.90;;;;;;5051440;28;20041;-82
2021/01/09 03:52:37;;;;;;;22.25;11.77;;;2.20;99.90;;;;;;5051150;28;20170;-84
2021/01/09 03:55:04;;;;;;;19.90;10.77;;;2.20;99.90;;;;;;5048235;28;20044;-82
2021/01/09 03:57:29;;;;;;;24.35;12.13;;;2.20;99.90;;;;;;5048180;28;20090;-82
2021/01/09 03:59:55;;;;;;;20.48;12.23;;;2.20;99.90;;;;;;5049486;28;20097;-83
2021/01/09 04:02:20;;;;;;;26.35;12.85;;;2.20;99.90;;;;;;5046559;28;20021;-82
2021/01/09 04:04:46;;;;;;;22.98;12.30;;;2.30;99.90;;;;;;5050680;28;20039;-82
2021/01/09 04:07:12;;;;;;;22.08;12.65;;;2.20;99.90;;;;;;5069189;28;20021;-83
2021/01/09 04:09:38;;;;;;;22.83;11.85;;;2.20;99.90;;;;;;5048439;28;20024;-82
2021/01/09 04:12:04;;;;;;;36.38;14.50;;;2.20;99.90;;;;;;5049648;28;20028;-80
2021/01/09 04:14:29;;;;;;;29.80;12.40;;;2.30;99.90;;;;;;5049127;28;20035;-81
2021/01/09 04:16:55;;;;;;;26.00;11.10;;;2.20;99.90;;;;;;5066651;28;20111;-81
2021/01/09 04:19:20;;;;;;;21.83;12.15;;;2.30;99.90;;;;;;5052627;28;20021;-80
2021/01/09 04:21:51;;;;;;;24.92;13.52;;;2.30;99.90;;;;;;5055344;28;20048;-82
2021/01/09 04:24:18;;;;;;;22.83;11.73;;;2.30;99.90;;;;;;5052393;28;20024;-83
2021/01/09 04:26:43;;;;;;;28.23;12.40;;;2.30;99.90;;;;;;5054467;28;20479;-80
2021/01/09 04:29:09;;;;;;;27.85;13.50;;;2.30;99.90;;;;;;5051827;28;20029;-80
2021/01/09 04:31:34;;;;;;;27.00;13.10;;;2.30;99.90;;;;;;5071677;28;20388;-82
2021/01/09 04:34:00;;;;;;;23.50;12.40;;;2.30;99.90;;;;;;5056502;28;20040;-82
2021/01/09 04:36:26;;;;;;;26.08;11.65;;;2.30;99.90;;;;;;5061939;28;20028;-81
2021/01/09 04:38:51;;;;;;;33.22;12.98;;;2.30;99.90;;;;;;5052491;28;20028;-81
2021/01/09 04:41:20;;;;;;;22.75;12.10;;;2.40;99.90;;;;;;5053415;28;20431;-82
2021/01/09 04:43:48;;;;;;;22.63;11.43;;;2.30;99.90;;;;;;5053814;28;20051;-82
2021/01/09 04:46:16;;;;;;;21.25;11.30;;;2.30;99.90;;;;;;5044243;28;20115;-82
2021/01/09 04:48:43;;;;;;;23.38;12.80;;;2.30;99.90;;;;;;5043805;28;20040;-82
2021/01/09 04:51:09;;;;;;;26.88;12.30;;;2.30;99.90;;;;;;5054823;28;20025;-82
2021/01/09 04:53:37;;;;;;;19.92;10.73;;;2.30;99.90;;;;;;5054827;28;20033;-82
2021/01/09 04:56:03;;;;;;;22.63;11.50;;;2.30;99.90;;;;;;5057996;28;20528;-82
2021/01/09 04:58:31;;;;;;;24.92;12.13;;;2.30;99.90;;;;;;5052190;28;20029;-82
2021/01/09 05:00:57;;;;;;;26.17;12.60;;;2.30;99.90;;;;;;5062809;28;20028;-82
2021/01/09 05:03:22;;;;;;;31.63;13.60;;;2.30;99.90;;;;;;5071634;28;20020;-82
2021/01/09 05:05:48;;;;;;;24.23;12.75;;;2.30;99.90;;;;;;5055008;28;20055;-80
2021/01/09 05:08:14;;;;;;;25.48;13.27;;;2.30;99.90;;;;;;5073085;28;20017;-81
2021/01/09 05:10:40;;;;;;;23.92;11.75;;;2.30;99.90;;;;;;5069280;28;20029;-81
2021/01/09 05:13:05;;;;;;;23.63;11.70;;;2.30;99.90;;;;;;5038918;28;20113;-81
2021/01/09 05:15:37;;;;;;;23.70;12.40;;;2.30;99.90;;;;;;5032378;28;20041;-83
2021/01/09 05:18:03;;;;;;;;;;;2.30;99.90;;;;;;5039507;28;20022;-83
2021/01/09 05:20:30;;;;;;;28.08;12.85;;;2.30;99.90;;;;;;5051458;28;19955;-80
2021/01/09 05:22:56;;;;;;;24.20;12.25;;;2.40;99.90;;;;;;5024967;28;20041;-81
2021/01/09 05:25:25;;;;;;;31.67;14.65;;;2.40;99.90;;;;;;5019806;28;20029;-82
2021/01/09 05:27:53;;;;;;;27.40;14.15;;;2.40;99.90;;;;;;5006059;28;20033;-82
2021/01/09 05:30:19;;;;;;;43.58;14.15;;;2.40;99.90;;;;;;5024829;28;20017;-82
2021/01/09 05:32:45;;;;;;;37.28;15.85;;;2.40;99.90;;;;;;5021756;28;20041;-83
2021/01/09 05:35:14;;;;;;;30.02;12.85;;;2.40;99.90;;;;;;5014849;28;20052;-82
2021/01/09 05:37:39;;;;;;;29.27;13.68;;;2.40;99.90;;;;;;5008638;28;20149;-82
2021/01/09 05:40:06;;;;;;;26.25;12.93;;;2.40;99.90;;;;;;5006680;28;20202;-82
2021/01/09 05:42:34;;;;;;;23.98;11.20;;;2.40;99.90;;;;;;5009935;28;20053;-82
2021/01/09 05:45:00;;;;;;;25.58;13.55;;;2.40;99.90;;;;;;5064999;28;20029;-81
2021/01/09 05:47:27;;;;;;;26.33;12.43;;;2.50;99.90;;;;;;5052274;28;20392;-81
2021/01/09 05:49:55;;;;;;;34.50;13.98;;;2.40;99.90;;;;;;5057969;28;20120;-81
2021/01/09 05:52:26;;;;;;;31.67;13.40;;;2.50;99.90;;;;;;5071655;28;20066;-81
2021/01/09 05:54:58;;;;;;;25.70;13.57;;;2.50;99.90;;;;;;5060335;28;20040;-82
2021/01/09 05:57:34;;;;;;;26.30;12.52;;;2.50;99.90;;;;;;5047796;28;20033;-83
2021/01/09 06:00:06;;;;;;;27.60;13.02;;;2.50;99.90;;;;;;5043402;28;20060;-82
2021/01/09 06:02:58;;;;;;;23.67;12.48;;;2.50;99.90;;;;;;5054059;28;20048;-83
2021/01/09 06:05:38;;;;;;;27.77;13.25;;;2.50;99.90;;;;;;5046320;28;20033;-81
2021/01/09 06:08:09;;;;;;;23.08;12.35;;;2.60;99.90;;;;;;5047222;28;20052;-81
2021/01/09 06:10:37;;;;;;;26.98;13.23;;;2.60;99.90;;;;;;5042283;28;20028;-83
2021/01/09 06:13:08;;;;;;;23.25;12.38;;;2.60;99.90;;;;;;5039032;28;20099;-83
2021/01/09 06:15:36;;;;;;;25.70;12.00;;;2.60;99.90;;;;;;5052247;28;20048;-83
2021/01/09 06:18:02;;;;;;;23.95;12.75;;;2.50;99.90;;;;;;5055479;28;20028;-82
2021/01/09 06:20:28;;;;;;;27.15;12.20;;;2.50;99.90;;;;;;5053404;28;20035;-82
2021/01/09 06:22:55;;;;;;;22.73;11.77;;;2.50;99.90;;;;;;5070916;28;20016;-82
2021/01/09 06:25:21;;;;;;;25.42;11.63;;;2.50;99.90;;;;;;5051440;28;20028;-82
2021/01/09 06:27:50;;;;;;;26.23;12.32;;;2.50;99.90;;;;;;5052211;28;20144;-82
2021/01/09 06:30:19;;;;;;;32.28;12.15;;;2.50;99.90;;;;;;5041937;28;20035;-82
2021/01/09 06:32:58;;;;;;;27.15;13.13;;;2.50;99.90;;;;;;5049910;28;20428;-82
2021/01/09 06:35:24;;;;;;;31.60;12.68;;;2.50;99.90;;;;;;5051971;28;20070;-82
2021/01/09 06:37:50;;;;;;;30.17;12.52;;;2.50;99.90;;;;;;5052997;28;20024;-82
2021/01/09 06:40:16;;;;;;;27.95;11.95;;;2.50;99.90;;;;;;5028128;28;20706;-81
2021/01/09 06:42:42;;;;;;;24.70;12.20;;;2.50;99.90;;;;;;5011095;28;20454;-81
2021/01/09 06:45:09;;;;;;;24.83;11.48;;;2.50;99.90;;;;;;5010240;28;20033;-83
2021/01/09 06:47:35;;;;;;;19.40;10.70;;;2.50;99.90;;;;;;5011101;28;20128;-82
2021/01/09 06:50:19;;;;;;;25.98;11.35;;;2.50;99.90;;;;;;5017848;28;20041;-82
2021/01/09 06:53:14;;;;;;;27.25;10.48;;;2.40;99.90;;;;;;5012241;28;20032;-82
2021/01/09 06:55:42;;;;;;;19.05;11.00;;;2.50;99.90;;;;;;5005637;28;20069;-82
2021/01/09 06:58:10;;;;;;;27.15;11.00;;;2.40;99.90;;;;;;5026002;28;20030;-82
2021/01/09 07:00:36;;;;;;;26.45;10.70;;;2.50;99.90;;;;;;5007385;28;20497;-83
2021/01/09 07:03:18;;;;;;;22.98;11.65;;;2.50;99.90;;;;;;5027982;28;20056;-83
2021/01/09 07:05:48;;;;;;;28.10;11.00;;;2.50;99.90;;;;;;5025297;28;20092;-83
2021/01/09 07:08:24;;;;;;;21.40;11.43;;;2.50;99.90;;;;;;5005838;28;20496;-82
2021/01/09 07:11:02;;;;;;;22.73;10.98;;;2.50;99.90;;;;;;5024193;28;20032;-82
2021/01/09 07:13:28;;;;;;;18.70;10.70;;;2.50;99.90;;;;;;5058969;28;20028;-83
2021/01/09 07:16:07;;;;;;;20.92;11.40;;;2.50;99.90;;;;;;5053132;28;20111;-80
2021/01/09 07:18:36;;;;;;;38.28;13.32;;;2.50;99.90;;;;;;5055412;28;20024;-80
2021/01/09 07:21:03;;;;;;;22.05;11.10;;;2.50;99.90;;;;;;5052071;28;20025;-83
2021/01/09 07:23:31;;;;;;;22.52;10.80;;;2.50;99.90;;;;;;5064581;28;20032;-82
2021/01/09 07:25:56;;;;;;;23.75;12.18;;;2.40;99.90;;;;;;5056252;28;20020;-81
2021/01/09 07:28:23;;;;;;;19.92;10.73;;;2.40;99.90;;;;;;5058064;28;20082;-82
2021/01/09 07:31:10;;;;;;;24.13;11.63;;;2.50;99.90;;;;;;5045066;28;20490;-81
2021/01/09 07:33:37;;;;;;;26.48;12.20;;;2.50;99.90;;;;;;5029044;28;20028;-81
2021/01/09 07:36:03;;;;;;;21.45;12.18;;;2.50;99.90;;;;;;5017612;28;20041;-80
2021/01/09 07:38:29;;;;;;;27.50;12.07;;;2.50;99.90;;;;;;5026303;28;20016;-81
2021/01/09 07:40:57;;;;;;;33.13;12.65;;;2.50;99.90;;;;;;5028289;28;20591;-80
2021/01/09 07:43:43;;;;;;;22.58;12.38;;;2.50;99.90;;;;;;5046283;28;20147;-80
2021/01/09 07:46:27;;;;;;;26.33;11.75;;;2.50;99.90;;;;;;5023307;28;20033;-82
2021/01/09 07:48:54;;;;;;;28.70;11.93;;;2.50;99.90;;;;;;5022247;28;20071;-82
2021/01/09 07:51:50;;;;;;;25.08;13.05;;;2.50;99.90;;;;;;5047252;28;20037;-80
2021/01/09 07:54:43;;;;;;;27.42;11.77;;;2.50;99.90;;;;;;5030897;28;20047;-80
2021/01/09 07:57:17;;;;;;;33.55;11.85;;;2.50;99.90;;;;;;5044643;28;20113;-80
2021/01/09 07:59:55;;;;;;;27.05;11.10;;;2.50;99.90;;;;;;5045213;28;20108;-80
2021/01/09 08:02:41;;;;;;;22.67;11.98;;;2.50;99.90;;;;;;5050332;28;20082;-80
2021/01/09 08:05:21;;;;;;;23.15;11.63;;;2.50;99.90;;;;;;5053284;28;20036;-81
2021/01/09 08:07:52;;;;;;;24.73;11.65;;;2.50;99.90;;;;;;5040458;28;20031;-80
2021/01/09 08:10:32;;;;;;;27.17;12.25;;;2.50;99.90;;;;;;5047835;28;20357;-80
2021/01/09 08:13:03;;;;;;;26.50;11.75;;;2.50;99.90;;;;;;5049656;28;20025;-80
2021/01/09 08:15:30;;;;;;;26.73;12.40;;;2.50;99.90;;;;;;5049447;28;20063;-80
2021/01/09 08:18:03;;;;;;;28.00;12.50;;;2.50;99.90;;;;;;5064413;28;20033;-80
2021/01/09 08:20:29;;;;;;;22.95;12.25;;;2.50;99.90;;;;;;5069032;28;20036;-80
2021/01/09 08:23:05;;;;;;;26.08;12.20;;;2.50;99.90;;;;;;5051137;28;20032;-80
2021/01/09 08:25:32;;;;;;;18.08;11.00;;;2.50;99.90;;;;;;5064513;28;20023;-80
2021/01/09 08:28:00;;;;;;;21.02;11.70;;;2.50;99.90;;;;;;5052531;28;20108;-80
2021/01/09 08:30:33;;;;;;;20.92;11.65;;;2.40;99.90;;;;;;5049370;28;20144;-80
2021/01/09 08:33:04;;;;;;;23.27;12.73;;;2.40;99.90;;;;;;5050040;28;20029;-79
2021/01/09 08:35:30;;;;;;;21.92;11.15;;;2.40;99.90;;;;;;5051451;28;20043;-80
2021/01/09 08:37:57;;;;;;;23.27;11.80;;;2.40;99.90;;;;;;5024109;28;20033;-80
2021/01/09 08:40:24;;;;;;;21.83;12.00;;;2.40;99.90;;;;;;5049690;28;20020;-80
2021/01/09 08:43:00;;;;;;;23.15;12.70;;;2.40;99.90;;;;;;5041175;28;20021;-80
2021/01/09 08:45:41;;;;;;;20.42;11.63;;;2.40;99.90;;;;;;5044855;28;20038;-79
2021/01/09 08:48:20;;;;;;;22.07;10.80;;;2.30;99.90;;;;;;5050012;28;20464;-80
2021/01/09 08:50:59;;;;;;;19.88;10.82;;;2.20;99.90;;;;;;5058812;28;20278;-80
2021/01/09 08:53:27;;;;;;;22.88;10.73;;;2.20;99.90;;;;;;5050255;28;20102;-80
2021/01/09 08:56:00;;;;;;;16.50;10.57;;;2.20;99.90;;;;;;5047533;28;20029;-80
2021/01/09 08:58:30;;;;;;;20.83;11.95;;;2.10;99.90;;;;;;5048374;28;20166;-80
2021/01/09 09:00:57;;;;;;;16.27;10.65;;;2.10;99.90;;;;;;5065037;28;20032;-80
2021/01/09 09:03:23;;;;;;;17.35;10.13;;;2.00;99.90;;;;;;5050652;28;20017;-79
2021/01/09 09:05:51;;;;;;;19.65;11.15;;;2.00;99.90;;;;;;5037219;28;20384;-80
2021/01/09 09:08:17;;;;;;;24.40;11.73;;;1.90;99.90;;;;;;5070717;28;20025;-80
2021/01/09 09:10:45;;;;;;;20.00;11.55;;;2.00;99.90;;;;;;5025788;28;20132;-80
2021/01/09 09:13:15;;;;;;;17.27;10.50;;;2.00;99.90;;;;;;5010635;28;20089;-80
2021/01/09 09:15:41;;;;;;;20.50;10.45;;;2.00;99.90;;;;;;5011357;28;20045;-80
2021/01/09 09:18:08;;;;;;;19.83;11.73;;;2.00;99.90;;;;;;5030048;28;20484;-80
2021/01/09 09:20:37;;;;;;;19.23;10.93;;;1.90;99.90;;;;;;5030018;28;20041;-80
2021/01/09 09:23:18;;;;;;;18.35;10.18;;;1.90;99.90;;;;;;5030279;28;20448;-80
2021/01/09 09:25:44;;;;;;;15.15;9.13;;;1.90;99.90;;;;;;5008398;28;20034;-80
2021/01/09 09:28:10;;;;;;;17.40;10.40;;;1.90;99.90;;;;;;5004016;28;20034;-80
2021/01/09 09:30:35;;;;;;;22.90;10.80;;;1.90;99.90;;;;;;5011844;28;20033;-80
2021/01/09 09:33:14;;;;;;;18.45;10.65;;;1.90;99.90;;;;;;5028240;28;20021;-80
2021/01/09 09:35:41;;;;;;;23.02;11.45;;;1.90;99.90;;;;;;5028882;28;20045;-80
2021/01/09 09:38:10;;;;;;;29.73;12.15;;;1.90;99.90;;;;;;5012970;28;20022;-80
2021/01/09 09:40:37;;;;;;;20.38;11.45;;;2.00;99.90;;;;;;5011325;28;20033;-80
2021/01/09 09:43:16;;;;;;;18.02;10.52;;;2.00;99.90;;;;;;5011566;28;20364;-79
2021/01/09 09:45:55;;;;;;;19.40;10.70;;;2.10;99.90;;;;;;5010819;28;20032;-80
2021/01/09 09:48:30;;;;;;;19.55;11.38;;;2.10;99.90;;;;;;5036052;28;20045;-80
2021/01/09 09:51:07;;;;;;;23.80;12.68;;;2.20;99.90;;;;;;5047926;28;20128;-80
2021/01/09 09:53:35;;;;;;;18.38;11.32;;;2.30;99.90;;;;;;5057511;28;20098;-80
2021/01/09 09:56:11;;;;;;;21.23;12.48;;;2.30;99.90;;;;;;5044218;28;20043;-80
2021/01/09 09:58:37;;;;;;;24.45;12.68;;;2.40;99.90;;;;;;5051020;28;20036;-80
2021/01/09 10:01:13;;;;;;;24.00;12.13;;;2.60;99.90;;;;;;5063738;28;20021;-80
2021/01/09 10:03:39;;;;;;;21.13;10.30;;;3.00;99.90;;;;;;5049139;28;20036;-80
2021/01/09 10:06:04;;;;;;;19.42;9.93;;;3.90;99.90;;;;;;5040561;28;20338;-80
2021/01/09 10:08:30;;;;;;;14.10;9.35;;;4.50;99.90;;;;;;5070338;28;20029;-80
2021/01/09 10:10:55;;;;;;;15.10;8.73;;;5.40;99.90;;;;;;5052038;28;20039;-80
2021/01/09 10:13:29;;;;;;;13.65;7.88;;;6.10;99.90;;;;;;5050646;28;20500;-80
2021/01/09 10:15:57;;;;;;;23.10;8.32;;;6.50;99.90;;;;;;5050381;28;20489;-80
2021/01/09 10:18:24;;;;;;;16.75;10.52;;;6.20;99.90;;;;;;5070435;28;20028;-80
2021/01/09 10:20:50;;;;;;;14.05;8.32;;;6.20;99.90;;;;;;5045642;28;20485;-80
2021/01/09 10:23:19;;;;;;;14.48;8.32;;;5.70;99.90;;;;;;5052572;28;20097;-80
2021/01/09 10:25:45;;;;;;;18.67;7.57;;;5.30;99.90;;;;;;5051256;28;20059;-80
2021/01/09 10:28:10;;;;;;;12.90;7.82;;;5.00;99.90;;;;;;5050741;28;20048;-80
2021/01/09 10:30:37;;;;;;;15.43;8.45;;;4.80;99.90;;;;;;5067283;28;20036;-81
2021/01/09 10:33:02;;;;;;;13.52;6.75;;;4.60;99.90;;;;;;5051728;28;20108;-80
2021/01/09 10:35:31;;;;;;;13.38;8.10;;;4.20;99.90;;;;;;5051492;28;20119;-80
2021/01/09 10:37:57;;;;;;;15.65;8.10;;;4.10;99.90;;;;;;5052502;28;20036;-80
2021/01/09 10:40:23;;;;;;;16.02;8.90;;;4.10;99.90;;;;;;5068161;28;20032;-80
2021/01/09 10:42:49;;;;;;;20.33;8.63;;;3.90;99.90;;;;;;5050821;28;20025;-80
2021/01/09 10:45:16;;;;;;;16.17;8.77;;;3.70;99.90;;;;;;5068137;28;20268;-82
2021/01/09 10:47:42;;;;;;;14.25;8.00;;;3.70;99.90;;;;;;5052094;28;20067;-82
2021/01/09 10:50:09;;;;;;;17.88;8.25;;;3.70;99.90;;;;;;5023670;28;20482;-80
2021/01/09 10:52:35;;;;;;;23.92;8.57;;;3.60;99.90;;;;;;5011640;28;20128;-80
2021/01/09 10:55:02;;;;;;;11.82;7.55;;;3.60;99.90;;;;;;5029336;28;20141;-79
2021/01/09 10:57:28;;;;;;;15.23;7.80;;;3.60;99.90;;;;;;5019180;28;20071;-79
2021/01/09 10:59:53;;;;;;;17.95;8.82;;;3.60;99.90;;;;;;5022484;28;20501;-81
2021/01/09 11:02:19;;;;;;;17.63;8.98;;;3.40;99.90;;;;;;5012923;28;20028;-80
2021/01/09 11:04:44;;;;;;;21.80;8.85;;;3.40;99.90;;;;;;5012934;28;20218;-80
2021/01/09 11:07:10;;;;;;;19.67;8.80;;;3.40;99.90;;;;;;5010573;28;20482;-80
2021/01/09 11:09:36;;;;;;;18.40;9.95;;;3.40;99.90;;;;;;5016006;28;20037;-80
2021/01/09 11:12:03;;;;;;;16.13;9.70;;;3.70;99.90;;;;;;5043713;28;20060;-80
2021/01/09 11:14:28;;;;;;;16.58;9.93;;;3.70;99.90;;;;;;5012866;28;20123;-80
2021/01/09 11:16:59;;;;;;;15.80;10.05;;;3.70;99.90;;;;;;5012743;28;20129;-80
2021/01/09 11:19:24;;;;;;;18.90;11.37;;;3.60;99.90;;;;;;5027073;28;20059;-80
2021/01/09 11:21:50;;;;;;;19.60;10.13;;;3.60;99.90;;;;;;5042198;28;20495;-80
2021/01/09 11:24:16;;;;;;;18.33;10.50;;;3.70;99.90;;;;;;5039974;28;20509;-80
2021/01/09 11:26:42;;;;;;;19.77;10.23;;;3.70;99.90;;;;;;5067437;28;20033;-81
2021/01/09 11:29:07;;;;;;;22.02;10.60;;;3.90;99.90;;;;;;5066169;28;20107;-81
2021/01/09 11:31:33;;;;;;;17.58;10.20;;;3.90;99.90;;;;;;5051012;28;20071;-82
2021/01/09 11:33:59;;;;;;;18.25;9.85;;;3.90;99.90;;;;;;5052123;28;20131;-83
2021/01/09 11:36:24;;;;;;;20.58;10.10;;;3.90;99.90;;;;;;5065849;28;20031;-81
2021/01/09 11:38:50;;;;;;;16.95;8.98;;;3.90;99.90;;;;;;5067889;28;20025;-81
2021/01/09 11:41:16;;;;;;;18.60;8.90;;;3.90;99.90;;;;;;5056131;28;20146;-80
2021/01/09 11:43:42;;;;;;;17.40;9.60;;;4.00;99.90;;;;;;5059045;28;20052;-80
2021/01/09 11:46:09;;;;;;;14.85;8.70;;;3.80;99.90;;;;;;5057186;28;20028;-80
2021/01/09 11:48:35;;;;;;;19.67;10.25;;;3.70;99.90;;;;;;5064897;28;20040;-81
2021/01/09 11:51:02;;;;;;;23.45;9.38;;;3.70;99.90;;;;;;5080834;28;20029;-81
2021/01/09 11:53:28;;;;;;;21.48;10.25;;;3.70;99.90;;;;;;5057907;28;20032;-80
2021/01/09 11:55:53;;;;;;;17.08;8.65;;;3.70;99.90;;;;;;5058618;28;20033;-80
2021/01/09 11:58:19;;;;;;;20.25;8.43;;;3.70;99.90;;;;;;5059474;28;20331;-80
2021/01/09 12:00:45;;;;;;;14.40;7.95;;;3.60;99.90;;;;;;5057167;28;20037;-80
2021/01/09 12:03:11;;;;;;;21.27;8.40;;;3.50;99.90;;;;;;5061673;28;20008;-80
2021/01/09 12:05:37;;;;;;;15.98;8.77;;;3.30;99.90;;;;;;5061611;28;20033;-80
2021/01/09 12:08:04;;;;;;;15.68;8.38;;;3.40;99.90;;;;;;5072028;28;20081;-80
2021/01/09 12:10:30;;;;;;;16.48;8.63;;;3.40;99.90;;;;;;5083507;28;20439;-80
2021/01/09 12:12:56;;;;;;;15.00;8.77;;;3.50;99.90;;;;;;5077518;28;20043;-81
2021/01/09 12:15:21;;;;;;;17.83;8.98;;;3.60;99.90;;;;;;5071913;28;20036;-81
2021/01/09 12:17:47;;;;;;;15.70;8.90;;;3.70;99.90;;;;;;5069251;28;20025;-80
2021/01/09 12:20:13;;;;;;;20.10;8.05;;;3.70;99.90;;;;;;5069640;28;20021;-80
2021/01/09 12:22:39;;;;;;;14.43;7.15;;;3.70;99.90;;;;;;5032132;28;20029;-80
2021/01/09 12:25:07;;;;;;;12.63;7.45;;;3.60;99.90;;;;;;5065639;28;20071;-81
2021/01/09 12:27:33;;;;;;;18.58;7.13;;;3.60;99.90;;;;;;5048981;28;20044;-80
2021/01/09 12:29:59;;;;;;;21.52;7.40;;;3.50;99.90;;;;;;5067446;28;20353;-80
2021/01/09 12:32:25;;;;;;;11.43;6.75;;;3.40;99.90;;;;;;5062381;28;20021;-80
2021/01/09 12:34:51;;;;;;;14.45;7.82;;;3.30;99.90;;;;;;5043528;28;20051;-80
2021/01/09 12:37:16;;;;;;;14.63;7.93;;;3.30;99.90;;;;;;5047334;28;20074;-80
2021/01/09 12:39:42;;;;;;;12.50;7.53;;;3.40;99.90;;;;;;5067938;28;20098;-80
2021/01/09 12:42:09;;;;;;;15.60;7.60;;;3.40;99.90;;;;;;5053019;28;20031;-81
2021/01/09 12:44:36;;;;;;;16.95;7.90;;;3.40;99.90;;;;;;5053931;28;20036;-80
2021/01/09 12:47:02;;;;;;;16.40;7.68;;;3.40;99.90;;;;;;5054224;28;20427;-80